createdAt,value
2022-12-23T00:00:39.194Z,27.20
2022-12-23T00:03:06.416Z,25.55
2022-12-23T00:05:38.351Z,33.03
2022-12-23T00:08:06.263Z,26.70
2022-12-23T00:10:37.683Z,28.75
2022-12-23T00:13:23.139Z,31.65
2022-12-23T00:15:49.983Z,28.58
2022-12-23T00:18:16.911Z,37.17
2022-12-23T00:20:43.670Z,29.33
2022-12-23T00:23:10.496Z,31.65
2022-12-23T00:25:43.825Z,27.10
2022-12-23T00:28:22.575Z,31.73
2022-12-23T00:31:04.471Z,29.33
2022-12-23T00:33:36.808Z,28.73
2022-12-23T00:36:27.816Z,28.20
2022-12-23T00:39:14.418Z,30.50
2022-12-23T00:42:00.451Z,34.20
2022-12-23T00:44:27.560Z,32.33
2022-12-23T00:46:54.405Z,32.92
2022-12-23T00:49:39.697Z,31.73
2022-12-23T00:52:08.468Z,39.92
2022-12-23T00:54:35.291Z,45.17
2022-12-23T00:57:02.407Z,37.07
2022-12-23T00:59:29.443Z,39.22
2022-12-23T01:02:15.326Z,33.78
2022-12-23T01:05:00.747Z,38.75
2022-12-23T01:07:27.629Z,30.02
2022-12-23T01:09:54.425Z,30.73
2022-12-23T01:12:21.274Z,34.95
2022-12-23T01:14:48.394Z,31.58
2022-12-23T01:17:15.334Z,32.78
2022-12-23T01:19:42.306Z,32.65
2022-12-23T01:22:09.225Z,35.33
2022-12-23T01:24:36.166Z,36.28
2022-12-23T01:27:03.082Z,40.40
2022-12-23T01:29:30.003Z,33.40
2022-12-23T01:31:57.187Z,43.88
2022-12-23T01:34:24.149Z,35.57
2022-12-23T01:36:51.072Z,48.03
2022-12-23T01:39:18.034Z,48.28
2022-12-23T01:42:03.594Z,48.10
2022-12-23T01:44:50.022Z,55.42
2022-12-23T01:47:37.076Z,43.23
2022-12-23T01:50:15.418Z,41.08
2022-12-23T01:52:48.979Z,46.25
2022-12-23T01:55:20.833Z,39.60
2022-12-23T01:57:48.754Z,44.33
2022-12-23T02:00:35.576Z,39.83
2022-12-23T02:03:21.206Z,37.00
2022-12-23T02:05:48.793Z,33.70
2022-12-23T02:08:35.466Z,32.17
2022-12-23T02:11:16.441Z,32.42
2022-12-23T02:14:38.951Z,29.53
2022-12-23T02:17:26.084Z,35.85
2022-12-23T02:20:36.677Z,35.85
2022-12-23T02:23:33.863Z,27.85
2022-12-23T02:26:09.609Z,27.95
2022-12-23T02:28:36.363Z,24.37
2022-12-23T02:31:09.538Z,23.27
2022-12-23T02:33:58.383Z,20.02
2022-12-23T02:36:30.758Z,19.13
2022-12-23T02:39:15.938Z,17.95
2022-12-23T02:41:52.421Z,15.90
2022-12-23T02:44:29.955Z,15.93
2022-12-23T02:47:10.261Z,17.35
2022-12-23T02:49:44.143Z,13.93
2022-12-23T02:52:14.583Z,18.50
2022-12-23T02:54:50.346Z,18.20
2022-12-23T02:57:23.385Z,20.45
2022-12-23T02:59:52.140Z,20.52
2022-12-23T03:02:19.909Z,19.75
2022-12-23T03:04:46.893Z,17.83
2022-12-23T03:07:26.601Z,19.10
2022-12-23T03:10:18.373Z,18.17
2022-12-23T03:13:09.446Z,21.58
2022-12-23T03:15:45.073Z,23.52
2022-12-23T03:18:33.345Z,18.02
2022-12-23T03:21:05.962Z,20.47
2022-12-23T03:23:43.750Z,23.50
2022-12-23T03:26:37.846Z,20.60
2022-12-23T03:29:39.661Z,21.65
2022-12-23T03:32:08.262Z,26.83
2022-12-23T03:34:39.286Z,23.97
2022-12-23T03:37:09.750Z,26.08
2022-12-23T03:39:45.582Z,26.20
2022-12-23T03:42:26.350Z,23.92
2022-12-23T03:45:36.464Z,22.65
2022-12-23T03:47:56.394Z,26.70
2022-12-23T03:50:25.328Z,28.35
2022-12-23T03:53:03.487Z,21.80
2022-12-23T03:55:37.633Z,30.73
2022-12-23T03:58:24.507Z,24.58
2022-12-23T04:00:59.871Z,24.37
2022-12-23T04:03:43.311Z,20.55
2022-12-23T04:06:15.211Z,19.38
2022-12-23T04:08:43.751Z,19.98
2022-12-23T04:11:11.140Z,19.73
2022-12-23T04:13:37.983Z,19.13
2022-12-23T04:16:05.329Z,23.30
2022-12-23T04:18:32.179Z,22.48
2022-12-23T04:20:59.464Z,23.13
2022-12-23T04:23:26.347Z,27.38
2022-12-23T04:25:53.126Z,22.10
2022-12-23T04:28:20.372Z,24.98
2022-12-23T04:30:47.345Z,27.35
2022-12-23T04:33:14.221Z,25.20
2022-12-23T04:35:41.133Z,26.65
2022-12-23T04:38:08.193Z,26.53
2022-12-23T04:40:34.981Z,24.48
2022-12-23T04:43:01.809Z,26.90
2022-12-23T04:45:28.609Z,25.67
2022-12-23T04:47:55.576Z,29.48
2022-12-23T04:50:22.456Z,28.37
2022-12-23T04:52:49.304Z,27.38
2022-12-23T04:55:16.174Z,29.65
2022-12-23T04:57:42.966Z,28.83
2022-12-23T05:00:10.465Z,29.05
2022-12-23T05:02:37.492Z,27.03
2022-12-23T05:05:04.797Z,26.00
2022-12-23T05:07:31.595Z,28.45
2022-12-23T05:10:02.191Z,26.83
2022-12-23T05:12:32.403Z,26.92
2022-12-23T05:14:59.210Z,24.87
2022-12-23T05:17:26.133Z,25.17
2022-12-23T05:19:52.955Z,26.33
2022-12-23T05:22:19.839Z,27.73
2022-12-23T05:24:47.049Z,26.20
2022-12-23T05:27:13.972Z,28.60
2022-12-23T05:29:40.718Z,27.73
2022-12-23T05:32:08.069Z,29.02
2022-12-23T05:34:34.869Z,29.23
2022-12-23T05:37:01.719Z,25.15
2022-12-23T05:39:28.541Z,25.43
2022-12-23T05:41:55.421Z,27.92
2022-12-23T05:44:22.488Z,26.52
2022-12-23T05:46:49.245Z,28.20
2022-12-23T05:49:16.094Z,30.73
2022-12-23T05:51:43.010Z,29.83
2022-12-23T05:54:09.946Z,27.10
2022-12-23T05:56:36.685Z,31.10
2022-12-23T05:59:03.706Z,29.45
2022-12-23T06:01:30.598Z,28.58
2022-12-23T06:03:57.533Z,28.00
2022-12-23T06:06:24.640Z,25.42
2022-12-23T06:08:57.480Z,26.75
2022-12-23T06:11:26.221Z,29.67
2022-12-23T06:13:52.995Z,27.15
2022-12-23T06:16:19.841Z,22.03
2022-12-23T06:18:46.705Z,23.23
2022-12-23T06:21:13.458Z,27.00
2022-12-23T06:23:40.217Z,23.77
2022-12-23T06:26:07.015Z,31.65
2022-12-23T06:28:33.842Z,26.27
2022-12-23T06:31:00.608Z,27.30
2022-12-23T06:33:27.379Z,25.15
2022-12-23T06:35:54.150Z,31.42
2022-12-23T06:38:21.016Z,26.85
2022-12-23T06:40:47.768Z,22.23
2022-12-23T06:43:14.973Z,25.42
2022-12-23T06:45:45.940Z,26.20
2022-12-23T06:48:13.062Z,27.23
2022-12-23T06:50:39.854Z,26.35
2022-12-23T06:53:06.740Z,25.00
2022-12-23T06:55:33.627Z,26.65
2022-12-23T06:58:00.461Z,23.77
2022-12-23T07:00:27.231Z,24.70
2022-12-23T07:02:54.770Z,25.83
2022-12-23T07:05:21.704Z,23.50
2022-12-23T07:07:48.507Z,25.50
2022-12-23T07:10:15.381Z,25.98
2022-12-23T07:12:46.094Z,24.08
2022-12-23T07:15:17.451Z,26.83
2022-12-23T07:17:44.305Z,25.60
2022-12-23T07:20:13.366Z,26.05
2022-12-23T07:22:40.173Z,27.92
2022-12-23T07:25:07.747Z,27.33
2022-12-23T07:27:34.558Z,27.23
2022-12-23T07:30:01.344Z,29.60
2022-12-23T07:32:28.189Z,27.42
2022-12-23T07:34:55.209Z,33.28
2022-12-23T07:37:22.017Z,31.85
2022-12-23T07:39:48.930Z,30.33
2022-12-23T07:42:43.452Z,31.37
2022-12-23T07:45:02.916Z,29.10
2022-12-23T07:47:29.735Z,35.30
2022-12-23T07:49:56.712Z,35.97
2022-12-23T07:52:23.545Z,35.50
2022-12-23T07:54:50.347Z,39.10
2022-12-23T07:57:17.165Z,37.47
2022-12-23T07:59:43.958Z,35.15
2022-12-23T08:02:11.391Z,48.63
2022-12-23T08:04:44.100Z,44.35
2022-12-23T08:07:12.729Z,55.83
2022-12-23T08:09:39.587Z,48.20
2022-12-23T08:12:06.769Z,51.53
2022-12-23T08:14:33.602Z,45.42
2022-12-23T08:17:00.517Z,43.65
2022-12-23T08:19:27.400Z,45.07
2022-12-23T08:21:54.167Z,48.22
2022-12-23T08:24:21.034Z,43.80
2022-12-23T08:26:47.852Z,45.55
2022-12-23T08:29:14.662Z,62.53
2022-12-23T08:31:41.669Z,57.87
2022-12-23T08:34:08.690Z,50.80
2022-12-23T08:36:36.451Z,56.35
2022-12-23T08:39:07.251Z,60.20
2022-12-23T08:41:38.714Z,57.15
2022-12-23T08:44:05.798Z,64.17
2022-12-23T08:46:32.870Z,77.82
2022-12-23T08:49:00.940Z,50.55
2022-12-23T08:51:28.536Z,57.60
2022-12-23T08:54:00.505Z,51.97
2022-12-23T08:56:30.935Z,63.13
2022-12-23T08:58:57.910Z,38.65
2022-12-23T09:01:27.295Z,51.10
2022-12-23T09:03:54.825Z,43.33
2022-12-23T09:06:29.842Z,39.92
2022-12-23T09:08:58.236Z,46.53
2022-12-23T09:11:27.603Z,42.15
2022-12-23T09:13:55.994Z,33.60
2022-12-23T09:16:23.115Z,30.35
2022-12-23T09:18:50.078Z,25.98
2022-12-23T09:21:19.741Z,21.63
2022-12-23T09:23:47.351Z,31.45
2022-12-23T09:26:26.148Z,31.25
2022-12-23T09:28:53.430Z,22.05
2022-12-23T09:31:22.124Z,31.77
2022-12-23T09:33:51.119Z,28.17
2022-12-23T09:36:18.110Z,29.60
2022-12-23T09:38:45.108Z,25.38
2022-12-23T09:41:14.803Z,27.90
2022-12-23T09:43:57.209Z,34.25
2022-12-23T09:46:27.119Z,35.33
2022-12-23T09:49:16.588Z,30.67
2022-12-23T09:51:44.576Z,44.22
2022-12-23T09:54:21.073Z,30.98
2022-12-23T09:57:03.609Z,40.42
2022-12-23T10:00:01.482Z,35.23
2022-12-23T10:02:47.497Z,35.78
2022-12-23T10:05:39.541Z,37.45
2022-12-23T10:08:23.781Z,41.33
2022-12-23T10:11:21.856Z,46.20
2022-12-23T10:13:50.416Z,40.47
2022-12-23T10:16:24.067Z,42.70
2022-12-23T10:18:57.853Z,56.50
2022-12-23T10:21:47.268Z,61.38
2022-12-23T10:24:38.582Z,59.08
2022-12-23T10:27:31.545Z,59.90
2022-12-23T10:30:33.636Z,58.88
2022-12-23T10:33:18.522Z,56.78
2022-12-23T10:36:04.243Z,65.72
2022-12-23T10:38:53.949Z,55.55
2022-12-23T10:41:45.020Z,61.83
2022-12-23T10:44:45.919Z,55.45
2022-12-23T10:47:57.458Z,54.10
2022-12-23T10:50:47.896Z,42.33
2022-12-23T10:53:27.446Z,42.78
2022-12-23T10:55:56.980Z,44.93
2022-12-23T10:58:23.967Z,41.67
2022-12-23T11:00:59.507Z,36.00
2022-12-23T11:03:33.605Z,46.33
2022-12-23T11:06:02.132Z,38.95
2022-12-23T11:08:31.110Z,45.03
2022-12-23T11:11:00.310Z,55.33
2022-12-23T11:13:37.799Z,50.75
2022-12-23T11:16:26.512Z,53.63
2022-12-23T11:19:02.837Z,60.55
2022-12-23T11:21:32.226Z,52.67
2022-12-23T11:24:20.229Z,49.67
2022-12-23T11:26:50.704Z,53.33
2022-12-23T11:29:24.832Z,62.60
2022-12-23T11:31:52.358Z,68.10
2022-12-23T11:34:25.612Z,62.03
2022-12-23T11:37:01.748Z,63.65
2022-12-23T11:39:36.495Z,77.28
2022-12-23T11:42:17.787Z,72.47
2022-12-23T11:44:48.303Z,65.95
2022-12-23T11:47:24.023Z,86.27
2022-12-23T11:49:56.362Z,71.93
2022-12-23T11:52:29.179Z,66.90
2022-12-23T11:55:02.011Z,74.20
2022-12-23T11:57:47.960Z,80.18
2022-12-23T12:00:34.629Z,73.73
2022-12-23T12:03:03.633Z,65.75
2022-12-23T12:05:38.034Z,72.22
2022-12-23T12:08:16.090Z,80.50
2022-12-23T12:10:43.235Z,69.63
2022-12-23T12:13:42.112Z,74.10
2022-12-23T12:16:39.521Z,70.60
2022-12-23T12:19:22.434Z,58.03
2022-12-23T12:21:53.562Z,77.90
2022-12-23T12:24:28.598Z,71.57
2022-12-23T12:27:01.227Z,77.30
2022-12-23T12:29:39.744Z,64.95
2022-12-23T12:32:17.062Z,72.30
2022-12-23T12:34:43.951Z,63.53
2022-12-23T12:37:11.122Z,65.25
2022-12-23T12:40:09.917Z,57.03
2022-12-23T12:42:41.142Z,60.38
2022-12-23T12:45:20.705Z,56.53
2022-12-23T12:48:19.016Z,55.47
2022-12-23T12:51:11.957Z,53.45
2022-12-23T12:53:50.095Z,44.87
2022-12-23T12:56:30.783Z,72.65
2022-12-23T12:58:58.159Z,63.05
2022-12-23T13:01:31.063Z,49.30
2022-12-23T13:04:03.781Z,50.70
2022-12-23T13:06:45.765Z,55.50
2022-12-23T13:09:15.557Z,51.78
2022-12-23T13:12:09.766Z,48.25
2022-12-23T13:14:58.316Z,45.88
2022-12-23T13:17:32.207Z,41.70
2022-12-23T13:20:23.716Z,46.07
2022-12-23T13:22:55.680Z,39.05
2022-12-23T13:25:34.279Z,44.42
2022-12-23T13:28:19.287Z,43.33
2022-12-23T13:31:13.977Z,47.50
2022-12-23T13:33:59.891Z,40.00
2022-12-23T13:36:52.515Z,40.70
2022-12-23T13:39:42.399Z,40.13
2022-12-23T13:42:17.509Z,40.30
2022-12-23T13:44:45.237Z,34.35
2022-12-23T13:47:39.295Z,37.83
2022-12-23T13:50:29.306Z,42.58
2022-12-23T13:53:02.381Z,44.72
2022-12-23T13:56:07.827Z,35.80
2022-12-23T13:58:35.111Z,38.05
2022-12-23T14:01:17.664Z,36.50
2022-12-23T14:03:47.478Z,36.55
2022-12-23T14:06:36.661Z,30.48
2022-12-23T14:09:03.745Z,30.63
2022-12-23T14:11:32.323Z,26.90
2022-12-23T14:14:02.307Z,27.73
2022-12-23T14:16:42.049Z,29.55
2022-12-23T14:19:53.994Z,30.90
2022-12-23T14:23:01.420Z,29.92
2022-12-23T14:25:49.459Z,26.00
2022-12-23T14:28:33.898Z,28.30
2022-12-23T14:31:05.394Z,23.55
2022-12-23T14:33:36.582Z,27.60
2022-12-23T14:36:24.261Z,26.58
2022-12-23T14:39:12.828Z,26.85
2022-12-23T14:41:49.892Z,27.53
2022-12-23T14:44:35.727Z,23.88
2022-12-23T14:47:04.383Z,27.38
2022-12-23T14:49:40.684Z,25.42
2022-12-23T14:52:44.360Z,24.13
2022-12-23T14:55:32.777Z,24.70
2022-12-23T14:58:33.288Z,24.38
2022-12-23T15:01:02.422Z,25.08
2022-12-23T15:03:39.952Z,25.73
2022-12-23T15:06:07.411Z,28.83
2022-12-23T15:08:39.430Z,27.43
2022-12-23T15:11:09.365Z,30.83
2022-12-23T15:13:37.789Z,26.90
2022-12-23T15:16:04.703Z,28.33
2022-12-23T15:18:31.567Z,26.75
2022-12-23T15:21:13.245Z,25.60
2022-12-23T15:23:49.560Z,26.90
2022-12-23T15:26:16.768Z,25.38
2022-12-23T15:28:43.754Z,25.67
2022-12-23T15:31:33.064Z,27.92
2022-12-23T15:34:05.464Z,29.37
2022-12-23T15:36:40.328Z,27.58
2022-12-23T15:39:19.843Z,29.10
2022-12-23T15:41:48.096Z,30.58
2022-12-23T15:44:21.171Z,27.95
2022-12-23T15:46:49.344Z,27.23
2022-12-23T15:49:16.627Z,31.58
2022-12-23T15:54:39.929Z,28.67
2022-12-23T15:57:07.343Z,24.13
2022-12-23T15:59:38.869Z,31.90
2022-12-23T16:02:59.095Z,25.42
2022-12-23T16:05:12.876Z,23.92
2022-12-23T16:07:41.804Z,22.45
2022-12-23T16:10:18.664Z,23.25
2022-12-23T16:12:45.632Z,23.83
2022-12-23T16:15:31.015Z,24.05
2022-12-23T16:18:16.708Z,22.58
2022-12-23T16:20:47.188Z,24.75
2022-12-23T16:23:15.666Z,24.10
2022-12-23T16:25:51.103Z,24.70
2022-12-23T16:28:26.595Z,22.48
2022-12-23T16:30:56.342Z,24.70
2022-12-23T16:33:49.216Z,23.73
2022-12-23T16:36:25.579Z,25.30
2022-12-23T16:38:58.648Z,23.27
2022-12-23T16:41:25.908Z,25.15
2022-12-23T16:43:53.203Z,22.30
2022-12-23T16:46:22.362Z,26.85
2022-12-23T16:48:55.836Z,21.10
2022-12-23T16:51:24.496Z,26.60
2022-12-23T16:53:57.601Z,23.45
2022-12-23T16:56:28.100Z,23.23
2022-12-23T16:58:55.032Z,19.58
2022-12-23T17:01:31.679Z,20.27
2022-12-23T17:03:58.551Z,23.30
2022-12-23T17:06:25.957Z,22.50
2022-12-23T17:08:53.246Z,23.20
2022-12-23T17:11:28.935Z,22.77
2022-12-23T17:14:01.591Z,23.00
2022-12-23T17:16:32.079Z,23.40
2022-12-23T17:19:01.399Z,22.35
2022-12-23T17:21:34.318Z,16.52
2022-12-23T17:24:24.277Z,22.45
2022-12-23T17:26:52.473Z,25.70
2022-12-23T17:29:19.519Z,23.83
2022-12-23T17:31:48.468Z,24.77
2022-12-23T17:34:17.875Z,22.35
2022-12-23T17:36:49.983Z,29.10
2022-12-23T17:39:18.106Z,16.80
2022-12-23T17:41:45.460Z,33.77
2022-12-23T17:44:15.558Z,30.23
2022-12-23T17:46:42.510Z,26.73
2022-12-23T17:49:09.680Z,26.38
2022-12-23T17:51:38.260Z,26.63
2022-12-23T17:54:06.348Z,26.60
2022-12-23T17:56:33.223Z,37.80
2022-12-23T17:59:00.005Z,39.80
2022-12-23T18:01:32.192Z,41.45
2022-12-23T18:04:00.043Z,35.50
2022-12-23T18:06:28.646Z,37.53
2022-12-23T18:08:57.309Z,37.05
2022-12-23T18:11:34.239Z,37.95
2022-12-23T18:14:02.452Z,41.00
2022-12-23T18:16:29.460Z,30.20
2022-12-23T18:18:56.556Z,40.23
2022-12-23T18:21:26.609Z,37.97
2022-12-23T18:23:59.658Z,29.58
2022-12-23T18:26:26.902Z,37.38
2022-12-23T18:28:54.234Z,44.15
2022-12-23T18:31:24.224Z,28.57
2022-12-23T18:33:51.690Z,35.78
2022-12-23T18:36:25.865Z,27.40
2022-12-23T18:38:53.986Z,32.00
2022-12-23T18:41:22.217Z,33.22
2022-12-23T18:43:49.559Z,31.57
2022-12-23T18:46:16.970Z,33.35
2022-12-23T18:48:44.103Z,39.00
2022-12-23T18:51:14.756Z,38.40
2022-12-23T18:53:43.384Z,29.42
2022-12-23T18:56:15.156Z,32.93
2022-12-23T18:58:42.330Z,29.38
2022-12-23T19:01:14.224Z,35.53
2022-12-23T19:03:41.497Z,30.00
2022-12-23T19:06:11.691Z,24.10
2022-12-23T19:08:39.036Z,38.43
2022-12-23T19:11:19.428Z,31.80
2022-12-23T19:13:47.056Z,32.92
2022-12-23T19:16:16.751Z,29.30
2022-12-23T19:18:44.365Z,37.15
2022-12-23T19:21:11.325Z,28.63
2022-12-23T19:23:41.588Z,39.55
2022-12-23T19:26:13.673Z,34.88
2022-12-23T19:28:41.464Z,43.70
2022-12-23T19:31:13.250Z,24.90
2022-12-23T19:33:41.263Z,31.53
2022-12-23T19:36:24.702Z,17.45
2022-12-23T19:38:52.131Z,36.75
2022-12-23T19:41:19.428Z,32.50
2022-12-23T19:43:46.857Z,21.70
2022-12-23T19:46:15.058Z,31.17
2022-12-23T19:48:42.729Z,32.38
2022-12-23T19:51:13.826Z,30.90
2022-12-23T19:53:41.811Z,41.47
2022-12-23T19:56:12.402Z,36.70
2022-12-23T19:58:41.829Z,31.73
2022-12-23T20:01:20.856Z,27.08
2022-12-23T20:03:49.801Z,36.17
2022-12-23T20:06:19.654Z,31.80
2022-12-23T20:08:48.313Z,36.08
2022-12-23T20:11:21.677Z,23.87
2022-12-23T20:13:52.930Z,28.38
2022-12-23T20:16:20.609Z,22.27
2022-12-23T20:18:48.943Z,16.25
2022-12-23T20:21:16.063Z,17.65
2022-12-23T20:23:43.200Z,18.60
2022-12-23T20:26:12.765Z,17.17
2022-12-23T20:28:43.179Z,20.88
2022-12-23T20:31:28.032Z,16.35
2022-12-23T20:33:56.173Z,19.55
2022-12-23T20:36:26.272Z,16.77
2022-12-23T20:38:54.353Z,19.92
2022-12-23T20:41:24.177Z,14.30
2022-12-23T20:44:23.356Z,16.90
2022-12-23T20:46:39.056Z,21.77
2022-12-23T20:49:06.876Z,22.87
2022-12-23T20:51:36.524Z,18.30
2022-12-23T20:54:03.479Z,24.60
2022-12-23T20:56:31.344Z,15.23
2022-12-23T20:58:59.902Z,17.58
2022-12-23T21:01:30.573Z,18.63
2022-12-23T21:04:09.092Z,24.00
2022-12-23T21:06:41.945Z,22.23
2022-12-23T21:09:12.965Z,25.67
2022-12-23T21:11:43.131Z,12.98
2022-12-23T21:14:10.337Z,15.63
2022-12-23T21:16:38.132Z,21.88
2022-12-23T21:19:07.064Z,20.52
2022-12-23T21:21:34.335Z,19.95
2022-12-23T21:24:04.723Z,23.77
2022-12-23T21:26:33.888Z,15.70
2022-12-23T21:29:03.965Z,18.30
2022-12-23T21:31:33.099Z,21.02
2022-12-23T21:34:00.380Z,24.35
2022-12-23T21:36:31.266Z,19.70
2022-12-23T21:38:59.378Z,20.23
2022-12-23T21:41:29.402Z,22.13
2022-12-23T21:43:57.605Z,14.20
2022-12-23T21:46:25.632Z,20.63
2022-12-23T21:48:52.945Z,17.90
2022-12-23T21:51:21.076Z,16.57
2022-12-23T21:53:50.621Z,19.55
2022-12-23T21:56:20.624Z,24.50
2022-12-23T21:58:47.737Z,18.00
2022-12-23T22:01:19.934Z,19.70
2022-12-23T22:03:49.172Z,28.97
2022-12-23T22:06:22.548Z,20.60
2022-12-23T22:08:50.514Z,23.73
2022-12-23T22:11:24.003Z,20.70
2022-12-23T22:13:51.862Z,17.75
2022-12-23T22:16:21.809Z,22.77
2022-12-23T22:18:50.051Z,16.38
2022-12-23T22:21:20.910Z,21.65
2022-12-23T22:23:49.838Z,22.65
2022-12-23T22:26:24.607Z,22.67
2022-12-23T22:28:56.941Z,21.47
2022-12-23T22:31:48.185Z,24.35
2022-12-23T22:34:20.678Z,19.85
2022-12-23T22:36:48.226Z,15.00
2022-12-23T22:39:20.673Z,18.38
2022-12-23T22:41:51.815Z,16.63
2022-12-23T22:44:19.558Z,26.63
2022-12-23T22:46:46.699Z,16.23
2022-12-23T22:49:15.116Z,17.80
2022-12-23T22:51:43.143Z,27.13
2022-12-23T22:54:10.683Z,18.37
2022-12-23T22:56:37.488Z,17.70
2022-12-23T22:59:04.947Z,15.18
2022-12-23T23:01:34.531Z,15.75
2022-12-23T23:04:03.239Z,20.00
2022-12-23T23:06:38.496Z,18.87
2022-12-23T23:09:17.441Z,24.17
2022-12-23T23:11:44.914Z,28.63
2022-12-23T23:14:12.269Z,13.20
2022-12-23T23:16:39.312Z,24.13
2022-12-23T23:19:06.585Z,21.97
2022-12-23T23:21:35.280Z,24.55
2022-12-23T23:24:02.216Z,23.23
2022-12-23T23:26:29.231Z,22.52
2022-12-23T23:28:56.407Z,25.13
2022-12-23T23:34:11.336Z,22.83
2022-12-23T23:36:38.349Z,21.35
2022-12-23T23:39:05.196Z,19.83
2022-12-23T23:41:32.012Z,30.27
2022-12-23T23:43:58.781Z,17.17
2022-12-23T23:46:25.693Z,22.13
2022-12-23T23:48:52.649Z,27.10
2022-12-23T23:51:19.477Z,23.63
2022-12-23T23:53:46.243Z,17.33
2022-12-23T23:56:13.335Z,20.40
2022-12-23T23:58:40.753Z,21.80
